Weather at Coral Bay Airport

Public forecast

Using degrees Celsius for public forecast. Weather courtesy of forecast.io.

Closest aviation weather report (METAR) to Coral Bay Airport

Closest report is Learmonth Airport, 56.3 nm (104.3 km) NNE. Retrieved 2022/01/29 10:30 UTC (8 minutes ago):

YPLM 291030Z AUTO 27019KT 9999 // NCD 28/20 Q1005 RF000/0000

Closest aviation forecast (TAF) to Coral Bay Airport

Closest forecast is Learmonth Airport, 56.3 nm (104.3 km) NNE. Retrieved 2022/01/29 06:00 UTC (5 hours ago):

TAF YPLM 290508Z 2906/3006 26014KT CAVOK FM291600 22010KT 9999 SCT015 FM292100 26007KT 9999 SCT010